sensor_id;sensor_type;location;lat;lon;timestamp;P1;durP1;ratioP1;P2;durP2;ratioP2
84052;SDS011;74140;44.988;4.976;2023-11-19T00:00:36;12.02;;;8.77;;
84052;SDS011;74140;44.988;4.976;2023-11-19T00:03:02;13.60;;;8.40;;
84052;SDS011;74140;44.988;4.976;2023-11-19T00:05:28;15.82;;;9.18;;
84052;SDS011;74140;44.988;4.976;2023-11-19T00:07:54;13.90;;;9.45;;
84052;SDS011;74140;44.988;4.976;2023-11-19T00:10:19;15.73;;;9.82;;
84052;SDS011;74140;44.988;4.976;2023-11-19T00:12:46;17.93;;;9.40;;
84052;SDS011;74140;44.988;4.976;2023-11-19T00:15:13;15.32;;;9.57;;
84052;SDS011;74140;44.988;4.976;2023-11-19T00:17:44;18.60;;;9.30;;
84052;SDS011;74140;44.988;4.976;2023-11-19T00:20:14;13.30;;;9.02;;
84052;SDS011;74140;44.988;4.976;2023-11-19T00:22:44;14.75;;;9.10;;
84052;SDS011;74140;44.988;4.976;2023-11-19T00:25:11;15.23;;;9.37;;
84052;SDS011;74140;44.988;4.976;2023-11-19T00:27:37;14.10;;;9.60;;
84052;SDS011;74140;44.988;4.976;2023-11-19T00:30:03;17.10;;;9.80;;
84052;SDS011;74140;44.988;4.976;2023-11-19T00:32:30;14.43;;;9.75;;
84052;SDS011;74140;44.988;4.976;2023-11-19T00:34:57;11.27;;;9.13;;
84052;SDS011;74140;44.988;4.976;2023-11-19T00:37:23;18.07;;;9.03;;
84052;SDS011;74140;44.988;4.976;2023-11-19T00:39:48;11.52;;;9.30;;
84052;SDS011;74140;44.988;4.976;2023-11-19T00:42:14;9.17;;;7.70;;
84052;SDS011;74140;44.988;4.976;2023-11-19T00:44:40;10.10;;;8.43;;
84052;SDS011;74140;44.988;4.976;2023-11-19T00:47:06;12.63;;;8.65;;
84052;SDS011;74140;44.988;4.976;2023-11-19T00:49:32;9.25;;;7.85;;
84052;SDS011;74140;44.988;4.976;2023-11-19T00:51:58;13.43;;;8.00;;
84052;SDS011;74140;44.988;4.976;2023-11-19T00:54:24;14.32;;;9.68;;
84052;SDS011;74140;44.988;4.976;2023-11-19T00:56:54;13.88;;;9.20;;
84052;SDS011;74140;44.988;4.976;2023-11-19T00:59:20;11.52;;;7.93;;
84052;SDS011;74140;44.988;4.976;2023-11-19T01:01:46;12.60;;;8.57;;
84052;SDS011;74140;44.988;4.976;2023-11-19T01:04:16;13.47;;;7.70;;
84052;SDS011;74140;44.988;4.976;2023-11-19T01:06:42;11.45;;;8.05;;
84052;SDS011;74140;44.988;4.976;2023-11-19T01:09:07;11.23;;;8.32;;
84052;SDS011;74140;44.988;4.976;2023-11-19T01:11:34;15.07;;;8.87;;
84052;SDS011;74140;44.988;4.976;2023-11-19T01:13:59;13.73;;;8.20;;
84052;SDS011;74140;44.988;4.976;2023-11-19T01:16:25;11.55;;;7.82;;
84052;SDS011;74140;44.988;4.976;2023-11-19T01:18:51;14.02;;;8.40;;
84052;SDS011;74140;44.988;4.976;2023-11-19T01:21:17;11.17;;;7.80;;
84052;SDS011;74140;44.988;4.976;2023-11-19T01:23:43;8.75;;;7.63;;
84052;SDS011;74140;44.988;4.976;2023-11-19T01:26:10;10.70;;;7.90;;
84052;SDS011;74140;44.988;4.976;2023-11-19T01:28:37;13.18;;;8.23;;
84052;SDS011;74140;44.988;4.976;2023-11-19T01:31:04;12.10;;;8.32;;
84052;SDS011;74140;44.988;4.976;2023-11-19T01:33:30;11.98;;;8.02;;
84052;SDS011;74140;44.988;4.976;2023-11-19T01:35:56;11.27;;;8.20;;
84052;SDS011;74140;44.988;4.976;2023-11-19T01:38:23;14.73;;;9.02;;
84052;SDS011;74140;44.988;4.976;2023-11-19T01:40:49;14.57;;;8.57;;
84052;SDS011;74140;44.988;4.976;2023-11-19T01:43:30;13.63;;;8.93;;
84052;SDS011;74140;44.988;4.976;2023-11-19T01:45:59;10.63;;;8.40;;
84052;SDS011;74140;44.988;4.976;2023-11-19T01:48:26;13.23;;;9.30;;
84052;SDS011;74140;44.988;4.976;2023-11-19T01:50:52;10.70;;;8.23;;
84052;SDS011;74140;44.988;4.976;2023-11-19T01:53:18;11.43;;;8.57;;
84052;SDS011;74140;44.988;4.976;2023-11-19T01:55:46;12.27;;;8.55;;
84052;SDS011;74140;44.988;4.976;2023-11-19T01:58:12;21.95;;;8.60;;
84052;SDS011;74140;44.988;4.976;2023-11-19T02:00:38;11.55;;;8.18;;
84052;SDS011;74140;44.988;4.976;2023-11-19T02:03:05;11.40;;;8.20;;
84052;SDS011;74140;44.988;4.976;2023-11-19T02:05:33;16.98;;;8.50;;
84052;SDS011;74140;44.988;4.976;2023-11-19T02:07:59;15.93;;;8.88;;
84052;SDS011;74140;44.988;4.976;2023-11-19T02:10:26;11.75;;;8.25;;
84052;SDS011;74140;44.988;4.976;2023-11-19T02:12:51;10.07;;;7.55;;
84052;SDS011;74140;44.988;4.976;2023-11-19T02:15:17;14.50;;;8.57;;
84052;SDS011;74140;44.988;4.976;2023-11-19T02:17:49;10.00;;;7.50;;
84052;SDS011;74140;44.988;4.976;2023-11-19T02:20:15;10.63;;;8.07;;
84052;SDS011;74140;44.988;4.976;2023-11-19T02:22:41;12.75;;;8.13;;
84052;SDS011;74140;44.988;4.976;2023-11-19T02:25:07;12.45;;;8.43;;
84052;SDS011;74140;44.988;4.976;2023-11-19T02:30:13;11.10;;;8.13;;
84052;SDS011;74140;44.988;4.976;2023-11-19T02:32:40;14.88;;;8.75;;
84052;SDS011;74140;44.988;4.976;2023-11-19T02:35:07;15.25;;;11.00;;
84052;SDS011;74140;44.988;4.976;2023-11-19T02:37:36;21.30;;;11.52;;
84052;SDS011;74140;44.988;4.976;2023-11-19T02:40:04;19.77;;;11.02;;
84052;SDS011;74140;44.988;4.976;2023-11-19T02:42:30;18.80;;;11.65;;
84052;SDS011;74140;44.988;4.976;2023-11-19T02:44:56;15.82;;;10.02;;
84052;SDS011;74140;44.988;4.976;2023-11-19T02:47:22;16.98;;;9.07;;
84052;SDS011;74140;44.988;4.976;2023-11-19T02:49:49;14.40;;;10.75;;
84052;SDS011;74140;44.988;4.976;2023-11-19T02:52:15;12.95;;;9.38;;
84052;SDS011;74140;44.988;4.976;2023-11-19T02:54:42;14.38;;;10.45;;
84052;SDS011;74140;44.988;4.976;2023-11-19T02:57:08;13.75;;;8.95;;
84052;SDS011;74140;44.988;4.976;2023-11-19T02:59:38;14.07;;;7.77;;
84052;SDS011;74140;44.988;4.976;2023-11-19T03:02:06;15.00;;;9.43;;
84052;SDS011;74140;44.988;4.976;2023-11-19T03:04:36;11.27;;;8.70;;
84052;SDS011;74140;44.988;4.976;2023-11-19T03:07:04;13.30;;;8.48;;
84052;SDS011;74140;44.988;4.976;2023-11-19T03:09:30;13.65;;;8.15;;
84052;SDS011;74140;44.988;4.976;2023-11-19T03:11:56;10.63;;;7.73;;
84052;SDS011;74140;44.988;4.976;2023-11-19T03:14:21;11.67;;;7.87;;
84052;SDS011;74140;44.988;4.976;2023-11-19T03:16:48;9.45;;;7.10;;
84052;SDS011;74140;44.988;4.976;2023-11-19T03:19:13;7.75;;;6.43;;
84052;SDS011;74140;44.988;4.976;2023-11-19T03:21:40;8.67;;;7.03;;
84052;SDS011;74140;44.988;4.976;2023-11-19T03:24:05;15.13;;;6.97;;
84052;SDS011;74140;44.988;4.976;2023-11-19T03:26:32;10.52;;;6.30;;
84052;SDS011;74140;44.988;4.976;2023-11-19T03:28:59;7.93;;;6.20;;
84052;SDS011;74140;44.988;4.976;2023-11-19T03:31:24;7.60;;;6.38;;
84052;SDS011;74140;44.988;4.976;2023-11-19T03:33:50;10.88;;;6.15;;
84052;SDS011;74140;44.988;4.976;2023-11-19T03:36:16;8.37;;;5.70;;
84052;SDS011;74140;44.988;4.976;2023-11-19T03:38:42;7.22;;;6.53;;
84052;SDS011;74140;44.988;4.976;2023-11-19T03:41:11;7.97;;;7.00;;
84052;SDS011;74140;44.988;4.976;2023-11-19T03:43:37;11.63;;;7.10;;
84052;SDS011;74140;44.988;4.976;2023-11-19T03:46:04;12.23;;;6.80;;
84052;SDS011;74140;44.988;4.976;2023-11-19T03:48:30;8.75;;;7.25;;
84052;SDS011;74140;44.988;4.976;2023-11-19T03:50:56;9.15;;;6.63;;
84052;SDS011;74140;44.988;4.976;2023-11-19T03:53:22;7.73;;;6.07;;
84052;SDS011;74140;44.988;4.976;2023-11-19T03:55:49;8.38;;;6.53;;
84052;SDS011;74140;44.988;4.976;2023-11-19T03:58:15;7.57;;;6.10;;
84052;SDS011;74140;44.988;4.976;2023-11-19T04:00:40;10.25;;;7.72;;
84052;SDS011;74140;44.988;4.976;2023-11-19T04:03:06;11.53;;;6.40;;
84052;SDS011;74140;44.988;4.976;2023-11-19T04:05:31;11.15;;;7.05;;
84052;SDS011;74140;44.988;4.976;2023-11-19T04:07:57;14.93;;;8.10;;
84052;SDS011;74140;44.988;4.976;2023-11-19T04:10:23;13.07;;;7.90;;
84052;SDS011;74140;44.988;4.976;2023-11-19T04:12:49;14.30;;;8.83;;
84052;SDS011;74140;44.988;4.976;2023-11-19T04:15:17;11.57;;;7.65;;
84052;SDS011;74140;44.988;4.976;2023-11-19T04:17:43;13.15;;;7.55;;
84052;SDS011;74140;44.988;4.976;2023-11-19T04:20:09;13.23;;;7.97;;
84052;SDS011;74140;44.988;4.976;2023-11-19T04:22:35;7.93;;;6.85;;
84052;SDS011;74140;44.988;4.976;2023-11-19T04:25:01;16.50;;;6.70;;
84052;SDS011;74140;44.988;4.976;2023-11-19T04:27:27;11.30;;;7.07;;
84052;SDS011;74140;44.988;4.976;2023-11-19T04:29:53;7.72;;;6.05;;
84052;SDS011;74140;44.988;4.976;2023-11-19T04:32:19;7.83;;;6.47;;
84052;SDS011;74140;44.988;4.976;2023-11-19T04:34:46;8.77;;;6.63;;
84052;SDS011;74140;44.988;4.976;2023-11-19T04:37:11;7.03;;;6.00;;
84052;SDS011;74140;44.988;4.976;2023-11-19T04:39:37;8.38;;;5.80;;
84052;SDS011;74140;44.988;4.976;2023-11-19T04:42:02;8.07;;;6.13;;
84052;SDS011;74140;44.988;4.976;2023-11-19T04:44:29;10.50;;;6.63;;
84052;SDS011;74140;44.988;4.976;2023-11-19T04:46:55;10.35;;;5.65;;
84052;SDS011;74140;44.988;4.976;2023-11-19T04:49:21;10.20;;;6.57;;
84052;SDS011;74140;44.988;4.976;2023-11-19T04:51:47;8.23;;;6.38;;
84052;SDS011;74140;44.988;4.976;2023-11-19T04:54:13;7.82;;;6.57;;
84052;SDS011;74140;44.988;4.976;2023-11-19T04:56:39;8.63;;;6.30;;
84052;SDS011;74140;44.988;4.976;2023-11-19T04:59:05;7.32;;;6.05;;
84052;SDS011;74140;44.988;4.976;2023-11-19T05:01:31;9.15;;;6.82;;
84052;SDS011;74140;44.988;4.976;2023-11-19T05:03:58;9.43;;;6.60;;
84052;SDS011;74140;44.988;4.976;2023-11-19T05:06:30;11.05;;;6.43;;
84052;SDS011;74140;44.988;4.976;2023-11-19T05:08:56;9.85;;;7.10;;
84052;SDS011;74140;44.988;4.976;2023-11-19T05:11:23;8.18;;;5.90;;
84052;SDS011;74140;44.988;4.976;2023-11-19T05:13:49;11.50;;;7.10;;
84052;SDS011;74140;44.988;4.976;2023-11-19T05:16:15;8.45;;;6.50;;
84052;SDS011;74140;44.988;4.976;2023-11-19T05:18:42;8.30;;;6.72;;
84052;SDS011;74140;44.988;4.976;2023-11-19T05:21:08;11.40;;;7.27;;
84052;SDS011;74140;44.988;4.976;2023-11-19T05:23:33;12.52;;;8.10;;
84052;SDS011;74140;44.988;4.976;2023-11-19T05:26:00;12.70;;;7.17;;
84052;SDS011;74140;44.988;4.976;2023-11-19T05:28:26;13.25;;;8.68;;
84052;SDS011;74140;44.988;4.976;2023-11-19T05:30:52;11.73;;;7.90;;
84052;SDS011;74140;44.988;4.976;2023-11-19T05:33:18;12.35;;;7.68;;
84052;SDS011;74140;44.988;4.976;2023-11-19T05:35:43;15.17;;;9.40;;
84052;SDS011;74140;44.988;4.976;2023-11-19T05:38:09;12.87;;;7.73;;
84052;SDS011;74140;44.988;4.976;2023-11-19T05:40:35;14.50;;;8.60;;
84052;SDS011;74140;44.988;4.976;2023-11-19T05:43:00;11.30;;;6.63;;
84052;SDS011;74140;44.988;4.976;2023-11-19T05:45:27;10.13;;;6.35;;
84052;SDS011;74140;44.988;4.976;2023-11-19T05:47:52;9.23;;;6.28;;
84052;SDS011;74140;44.988;4.976;2023-11-19T05:50:18;7.63;;;5.53;;
84052;SDS011;74140;44.988;4.976;2023-11-19T05:52:44;8.45;;;5.47;;
84052;SDS011;74140;44.988;4.976;2023-11-19T05:55:10;10.50;;;6.27;;
84052;SDS011;74140;44.988;4.976;2023-11-19T05:57:36;6.63;;;5.30;;
84052;SDS011;74140;44.988;4.976;2023-11-19T06:00:02;7.03;;;5.82;;
84052;SDS011;74140;44.988;4.976;2023-11-19T06:02:32;6.80;;;5.00;;
84052;SDS011;74140;44.988;4.976;2023-11-19T06:04:58;5.32;;;4.82;;
84052;SDS011;74140;44.988;4.976;2023-11-19T06:07:23;8.18;;;5.25;;
84052;SDS011;74140;44.988;4.976;2023-11-19T06:09:50;7.83;;;5.20;;
84052;SDS011;74140;44.988;4.976;2023-11-19T06:12:15;5.03;;;4.10;;
84052;SDS011;74140;44.988;4.976;2023-11-19T06:14:41;5.00;;;4.50;;
84052;SDS011;74140;44.988;4.976;2023-11-19T06:17:06;9.95;;;5.43;;
84052;SDS011;74140;44.988;4.976;2023-11-19T06:19:33;5.47;;;3.57;;
84052;SDS011;74140;44.988;4.976;2023-11-19T06:21:59;5.60;;;4.47;;
84052;SDS011;74140;44.988;4.976;2023-11-19T06:24:25;6.85;;;5.07;;
84052;SDS011;74140;44.988;4.976;2023-11-19T06:26:50;8.37;;;5.20;;
84052;SDS011;74140;44.988;4.976;2023-11-19T06:29:16;10.87;;;5.10;;
84052;SDS011;74140;44.988;4.976;2023-11-19T06:31:44;9.52;;;5.38;;
84052;SDS011;74140;44.988;4.976;2023-11-19T06:34:11;10.13;;;7.25;;
84052;SDS011;74140;44.988;4.976;2023-11-19T06:36:37;13.52;;;7.72;;
84052;SDS011;74140;44.988;4.976;2023-11-19T06:39:03;11.63;;;7.50;;
84052;SDS011;74140;44.988;4.976;2023-11-19T06:41:29;15.50;;;8.90;;
84052;SDS011;74140;44.988;4.976;2023-11-19T06:43:54;11.77;;;8.07;;
84052;SDS011;74140;44.988;4.976;2023-11-19T06:46:20;10.77;;;8.33;;
84052;SDS011;74140;44.988;4.976;2023-11-19T06:48:46;12.55;;;8.77;;
84052;SDS011;74140;44.988;4.976;2023-11-19T06:51:12;9.85;;;7.82;;
84052;SDS011;74140;44.988;4.976;2023-11-19T06:53:38;9.07;;;7.17;;
84052;SDS011;74140;44.988;4.976;2023-11-19T06:56:27;11.50;;;7.38;;
84052;SDS011;74140;44.988;4.976;2023-11-19T06:58:53;8.52;;;6.70;;
84052;SDS011;74140;44.988;4.976;2023-11-19T07:01:19;7.35;;;6.55;;
84052;SDS011;74140;44.988;4.976;2023-11-19T07:03:45;11.15;;;6.78;;
84052;SDS011;74140;44.988;4.976;2023-11-19T07:06:11;7.43;;;6.13;;
84052;SDS011;74140;44.988;4.976;2023-11-19T07:08:38;5.97;;;4.72;;
84052;SDS011;74140;44.988;4.976;2023-11-19T07:11:04;11.30;;;5.80;;
84052;SDS011;74140;44.988;4.976;2023-11-19T07:13:30;9.25;;;6.25;;
84052;SDS011;74140;44.988;4.976;2023-11-19T07:15:56;9.33;;;6.83;;
84052;SDS011;74140;44.988;4.976;2023-11-19T07:18:22;10.10;;;6.93;;
84052;SDS011;74140;44.988;4.976;2023-11-19T07:20:48;8.53;;;6.47;;
84052;SDS011;74140;44.988;4.976;2023-11-19T07:23:13;10.00;;;7.07;;
84052;SDS011;74140;44.988;4.976;2023-11-19T07:25:42;9.27;;;7.05;;
84052;SDS011;74140;44.988;4.976;2023-11-19T07:28:11;9.40;;;6.93;;
84052;SDS011;74140;44.988;4.976;2023-11-19T07:30:37;8.60;;;6.47;;
84052;SDS011;74140;44.988;4.976;2023-11-19T07:33:03;10.43;;;6.33;;
84052;SDS011;74140;44.988;4.976;2023-11-19T07:35:29;9.45;;;6.88;;
84052;SDS011;74140;44.988;4.976;2023-11-19T07:37:56;7.78;;;6.43;;
84052;SDS011;74140;44.988;4.976;2023-11-19T07:40:23;6.37;;;5.77;;
84052;SDS011;74140;44.988;4.976;2023-11-19T07:42:49;8.93;;;6.45;;
84052;SDS011;74140;44.988;4.976;2023-11-19T07:45:14;7.82;;;6.47;;
84052;SDS011;74140;44.988;4.976;2023-11-19T07:47:41;7.70;;;6.13;;
84052;SDS011;74140;44.988;4.976;2023-11-19T07:50:09;7.53;;;5.97;;
84052;SDS011;74140;44.988;4.976;2023-11-19T07:52:34;8.18;;;6.15;;
84052;SDS011;74140;44.988;4.976;2023-11-19T07:55:00;13.10;;;6.77;;
84052;SDS011;74140;44.988;4.976;2023-11-19T07:57:26;8.48;;;6.38;;
84052;SDS011;74140;44.988;4.976;2023-11-19T07:59:55;7.35;;;5.88;;
84052;SDS011;74140;44.988;4.976;2023-11-19T08:02:21;8.47;;;6.90;;
84052;SDS011;74140;44.988;4.976;2023-11-19T08:04:46;9.38;;;5.85;;
84052;SDS011;74140;44.988;4.976;2023-11-19T08:07:15;6.60;;;5.93;;
84052;SDS011;74140;44.988;4.976;2023-11-19T08:09:41;8.53;;;5.70;;
84052;SDS011;74140;44.988;4.976;2023-11-19T08:12:07;6.68;;;5.80;;
84052;SDS011;74140;44.988;4.976;2023-11-19T08:14:33;5.82;;;5.30;;
84052;SDS011;74140;44.988;4.976;2023-11-19T08:16:59;8.57;;;5.40;;
84052;SDS011;74140;44.988;4.976;2023-11-19T08:19:25;6.33;;;4.80;;
84052;SDS011;74140;44.988;4.976;2023-11-19T08:21:50;6.00;;;5.22;;
84052;SDS011;74140;44.988;4.976;2023-11-19T08:24:16;5.57;;;4.83;;
84052;SDS011;74140;44.988;4.976;2023-11-19T08:26:42;5.97;;;5.45;;
84052;SDS011;74140;44.988;4.976;2023-11-19T08:29:08;5.85;;;5.25;;
84052;SDS011;74140;44.988;4.976;2023-11-19T08:31:34;7.50;;;5.40;;
84052;SDS011;74140;44.988;4.976;2023-11-19T08:34:00;8.93;;;5.25;;
84052;SDS011;74140;44.988;4.976;2023-11-19T08:36:26;6.45;;;5.50;;
84052;SDS011;74140;44.988;4.976;2023-11-19T08:38:53;5.70;;;5.17;;
84052;SDS011;74140;44.988;4.976;2023-11-19T08:41:18;5.43;;;4.90;;
84052;SDS011;74140;44.988;4.976;2023-11-19T08:43:44;7.40;;;5.32;;
84052;SDS011;74140;44.988;4.976;2023-11-19T08:46:11;5.40;;;4.90;;
84052;SDS011;74140;44.988;4.976;2023-11-19T08:48:37;5.97;;;4.65;;
84052;SDS011;74140;44.988;4.976;2023-11-19T08:51:03;5.15;;;4.65;;
84052;SDS011;74140;44.988;4.976;2023-11-19T08:53:29;5.82;;;4.82;;
84052;SDS011;74140;44.988;4.976;2023-11-19T08:55:55;5.03;;;4.53;;
84052;SDS011;74140;44.988;4.976;2023-11-19T08:58:21;5.70;;;5.20;;
84052;SDS011;74140;44.988;4.976;2023-11-19T09:00:46;6.03;;;5.50;;
84052;SDS011;74140;44.988;4.976;2023-11-19T09:03:12;6.28;;;5.53;;
84052;SDS011;74140;44.988;4.976;2023-11-19T09:05:38;5.33;;;4.87;;
84052;SDS011;74140;44.988;4.976;2023-11-19T09:08:04;6.07;;;5.57;;
84052;SDS011;74140;44.988;4.976;2023-11-19T09:10:29;6.40;;;5.85;;
84052;SDS011;74140;44.988;4.976;2023-11-19T09:12:55;9.33;;;6.53;;
84052;SDS011;74140;44.988;4.976;2023-11-19T09:15:21;7.80;;;6.60;;
84052;SDS011;74140;44.988;4.976;2023-11-19T09:17:46;11.65;;;7.28;;
84052;SDS011;74140;44.988;4.976;2023-11-19T09:20:12;9.97;;;7.13;;
84052;SDS011;74140;44.988;4.976;2023-11-19T09:22:40;7.28;;;6.50;;
84052;SDS011;74140;44.988;4.976;2023-11-19T09:25:06;8.95;;;5.90;;
84052;SDS011;74140;44.988;4.976;2023-11-19T09:27:32;7.22;;;6.20;;
84052;SDS011;74140;44.988;4.976;2023-11-19T09:29:58;7.00;;;6.20;;
84052;SDS011;74140;44.988;4.976;2023-11-19T09:32:24;7.50;;;6.20;;
84052;SDS011;74140;44.988;4.976;2023-11-19T09:34:50;9.17;;;6.73;;
84052;SDS011;74140;44.988;4.976;2023-11-19T09:37:16;8.73;;;5.93;;
84052;SDS011;74140;44.988;4.976;2023-11-19T09:39:41;8.30;;;6.37;;
84052;SDS011;74140;44.988;4.976;2023-11-19T09:42:10;7.20;;;6.13;;
84052;SDS011;74140;44.988;4.976;2023-11-19T09:44:37;6.65;;;6.05;;
84052;SDS011;74140;44.988;4.976;2023-11-19T09:47:05;6.90;;;6.07;;
84052;SDS011;74140;44.988;4.976;2023-11-19T09:49:32;6.78;;;6.07;;
84052;SDS011;74140;44.988;4.976;2023-11-19T09:52:00;6.13;;;5.40;;
84052;SDS011;74140;44.988;4.976;2023-11-19T09:54:27;5.47;;;4.90;;
84052;SDS011;74140;44.988;4.976;2023-11-19T09:56:53;6.80;;;4.93;;
84052;SDS011;74140;44.988;4.976;2023-11-19T09:59:25;5.40;;;4.88;;
84052;SDS011;74140;44.988;4.976;2023-11-19T10:01:51;5.28;;;4.65;;
84052;SDS011;74140;44.988;4.976;2023-11-19T10:04:17;9.03;;;5.37;;
84052;SDS011;74140;44.988;4.976;2023-11-19T10:06:44;5.30;;;4.18;;
84052;SDS011;74140;44.988;4.976;2023-11-19T10:09:11;4.68;;;3.67;;
84052;SDS011;74140;44.988;4.976;2023-11-19T10:11:40;4.73;;;4.23;;
84052;SDS011;74140;44.988;4.976;2023-11-19T10:14:05;5.88;;;4.38;;
84052;SDS011;74140;44.988;4.976;2023-11-19T10:16:31;5.27;;;4.77;;
84052;SDS011;74140;44.988;4.976;2023-11-19T10:19:00;5.07;;;4.15;;
84052;SDS011;74140;44.988;4.976;2023-11-19T10:21:25;7.13;;;3.80;;
84052;SDS011;74140;44.988;4.976;2023-11-19T10:23:53;4.65;;;4.25;;
84052;SDS011;74140;44.988;4.976;2023-11-19T10:26:22;4.60;;;4.20;;
84052;SDS011;74140;44.988;4.976;2023-11-19T10:28:48;4.30;;;3.45;;
84052;SDS011;74140;44.988;4.976;2023-11-19T10:31:14;6.63;;;4.10;;
84052;SDS011;74140;44.988;4.976;2023-11-19T10:33:41;4.20;;;3.80;;
84052;SDS011;74140;44.988;4.976;2023-11-19T10:36:09;4.40;;;3.97;;
84052;SDS011;74140;44.988;4.976;2023-11-19T10:38:39;6.93;;;4.30;;
84052;SDS011;74140;44.988;4.976;2023-11-19T10:41:06;4.18;;;3.75;;
84052;SDS011;74140;44.988;4.976;2023-11-19T10:43:32;5.25;;;4.22;;
84052;SDS011;74140;44.988;4.976;2023-11-19T10:46:12;4.55;;;4.15;;
84052;SDS011;74140;44.988;4.976;2023-11-19T10:48:39;5.70;;;3.58;;
84052;SDS011;74140;44.988;4.976;2023-11-19T10:51:05;6.23;;;4.23;;
84052;SDS011;74140;44.988;4.976;2023-11-19T10:53:33;4.10;;;3.70;;
84052;SDS011;74140;44.988;4.976;2023-11-19T10:56:02;4.35;;;3.92;;
84052;SDS011;74140;44.988;4.976;2023-11-19T10:58:33;4.82;;;4.32;;
84052;SDS011;74140;44.988;4.976;2023-11-19T11:01:03;4.32;;;3.92;;
84052;SDS011;74140;44.988;4.976;2023-11-19T11:03:40;5.60;;;3.83;;
84052;SDS011;74140;44.988;4.976;2023-11-19T11:06:06;4.55;;;3.80;;
84052;SDS011;74140;44.988;4.976;2023-11-19T11:08:32;5.30;;;3.83;;
84052;SDS011;74140;44.988;4.976;2023-11-19T11:11:02;4.18;;;3.72;;
84052;SDS011;74140;44.988;4.976;2023-11-19T11:13:33;4.55;;;3.17;;
84052;SDS011;74140;44.988;4.976;2023-11-19T11:15:59;5.20;;;3.63;;
84052;SDS011;74140;44.988;4.976;2023-11-19T11:18:25;4.57;;;3.45;;
84052;SDS011;74140;44.988;4.976;2023-11-19T11:21:00;7.35;;;3.97;;
84052;SDS011;74140;44.988;4.976;2023-11-19T11:29:09;6.13;;;4.40;;
84052;SDS011;74140;44.988;4.976;2023-11-19T11:40:02;5.65;;;4.18;;
84052;SDS011;74140;44.988;4.976;2023-11-19T11:42:35;4.07;;;3.70;;
84052;SDS011;74140;44.988;4.976;2023-11-19T11:45:08;5.82;;;3.78;;
84052;SDS011;74140;44.988;4.976;2023-11-19T11:50:14;4.45;;;3.85;;
84052;SDS011;74140;44.988;4.976;2023-11-19T11:57:56;4.22;;;3.83;;
84052;SDS011;74140;44.988;4.976;2023-11-19T12:02:55;5.20;;;4.10;;
84052;SDS011;74140;44.988;4.976;2023-11-19T12:05:24;5.47;;;4.15;;
84052;SDS011;74140;44.988;4.976;2023-11-19T12:07:57;5.13;;;4.17;;
84052;SDS011;74140;44.988;4.976;2023-11-19T12:10:28;5.82;;;3.17;;
84052;SDS011;74140;44.988;4.976;2023-11-19T12:12:59;4.13;;;3.72;;
84052;SDS011;74140;44.988;4.976;2023-11-19T12:15:26;4.40;;;4.00;;
84052;SDS011;74140;44.988;4.976;2023-11-19T12:17:53;4.30;;;3.90;;
84052;SDS011;74140;44.988;4.976;2023-11-19T12:20:22;4.10;;;3.50;;
84052;SDS011;74140;44.988;4.976;2023-11-19T12:22:49;4.72;;;3.95;;
84052;SDS011;74140;44.988;4.976;2023-11-19T12:25:17;3.80;;;3.47;;
84052;SDS011;74140;44.988;4.976;2023-11-19T12:30:11;3.90;;;3.60;;
84052;SDS011;74140;44.988;4.976;2023-11-19T12:32:38;5.43;;;4.15;;
84052;SDS011;74140;44.988;4.976;2023-11-19T12:35:06;4.47;;;4.07;;
84052;SDS011;74140;44.988;4.976;2023-11-19T12:37:39;3.75;;;3.42;;
84052;SDS011;74140;44.988;4.976;2023-11-19T12:40:12;4.25;;;3.50;;
84052;SDS011;74140;44.988;4.976;2023-11-19T12:42:42;8.30;;;4.00;;
84052;SDS011;74140;44.988;4.976;2023-11-19T12:45:11;4.72;;;3.35;;
84052;SDS011;74140;44.988;4.976;2023-11-19T12:47:37;3.60;;;3.30;;
84052;SDS011;74140;44.988;4.976;2023-11-19T12:50:04;4.68;;;3.28;;
84052;SDS011;74140;44.988;4.976;2023-11-19T12:52:31;4.30;;;2.88;;
84052;SDS011;74140;44.988;4.976;2023-11-19T12:54:57;3.57;;;2.80;;
84052;SDS011;74140;44.988;4.976;2023-11-19T12:57:42;4.55;;;3.20;;
84052;SDS011;74140;44.988;4.976;2023-11-19T13:00:17;4.00;;;3.10;;
84052;SDS011;74140;44.988;4.976;2023-11-19T13:02:47;5.70;;;2.77;;
84052;SDS011;74140;44.988;4.976;2023-11-19T13:05:23;5.30;;;3.10;;
84052;SDS011;74140;44.988;4.976;2023-11-19T13:08:00;2.88;;;2.67;;
84052;SDS011;74140;44.988;4.976;2023-11-19T13:10:49;3.60;;;3.30;;
84052;SDS011;74140;44.988;4.976;2023-11-19T13:13:21;4.47;;;3.33;;
84052;SDS011;74140;44.988;4.976;2023-11-19T13:15:47;5.13;;;3.03;;
84052;SDS011;74140;44.988;4.976;2023-11-19T13:18:16;3.03;;;2.55;;
84052;SDS011;74140;44.988;4.976;2023-11-19T13:20:42;5.47;;;2.75;;
84052;SDS011;74140;44.988;4.976;2023-11-19T13:23:08;3.42;;;2.70;;
84052;SDS011;74140;44.988;4.976;2023-11-19T13:25:33;4.93;;;3.13;;
84052;SDS011;74140;44.988;4.976;2023-11-19T13:27:59;4.18;;;2.80;;
84052;SDS011;74140;44.988;4.976;2023-11-19T13:30:25;3.00;;;2.70;;
84052;SDS011;74140;44.988;4.976;2023-11-19T13:32:52;2.78;;;2.53;;
84052;SDS011;74140;44.988;4.976;2023-11-19T13:35:19;3.88;;;3.00;;
84052;SDS011;74140;44.988;4.976;2023-11-19T13:37:46;6.03;;;3.20;;
84052;SDS011;74140;44.988;4.976;2023-11-19T13:40:12;4.07;;;3.67;;
84052;SDS011;74140;44.988;4.976;2023-11-19T13:42:40;5.57;;;4.10;;
84052;SDS011;74140;44.988;4.976;2023-11-19T13:45:10;5.30;;;3.65;;
84052;SDS011;74140;44.988;4.976;2023-11-19T13:47:41;4.30;;;3.90;;
84052;SDS011;74140;44.988;4.976;2023-11-19T13:50:09;8.13;;;3.80;;
84052;SDS011;74140;44.988;4.976;2023-11-19T13:52:39;5.68;;;3.95;;
84052;SDS011;74140;44.988;4.976;2023-11-19T13:55:06;4.47;;;3.28;;
84052;SDS011;74140;44.988;4.976;2023-11-19T13:57:34;4.95;;;3.85;;
84052;SDS011;74140;44.988;4.976;2023-11-19T14:00:00;4.25;;;3.78;;
84052;SDS011;74140;44.988;4.976;2023-11-19T14:02:30;4.90;;;4.50;;
84052;SDS011;74140;44.988;4.976;2023-11-19T14:04:55;4.80;;;3.85;;
84052;SDS011;74140;44.988;4.976;2023-11-19T14:07:21;5.17;;;4.70;;
84052;SDS011;74140;44.988;4.976;2023-11-19T14:09:47;5.47;;;3.70;;
84052;SDS011;74140;44.988;4.976;2023-11-19T14:12:12;4.77;;;3.50;;
84052;SDS011;74140;44.988;4.976;2023-11-19T14:14:38;4.80;;;4.30;;
84052;SDS011;74140;44.988;4.976;2023-11-19T14:17:04;5.68;;;4.25;;
84052;SDS011;74140;44.988;4.976;2023-11-19T14:19:30;5.35;;;4.28;;
84052;SDS011;74140;44.988;4.976;2023-11-19T14:21:55;5.90;;;5.30;;
84052;SDS011;74140;44.988;4.976;2023-11-19T14:24:21;5.18;;;4.60;;
84052;SDS011;74140;44.988;4.976;2023-11-19T14:26:48;4.13;;;3.73;;
84052;SDS011;74140;44.988;4.976;2023-11-19T14:29:15;4.28;;;3.70;;
84052;SDS011;74140;44.988;4.976;2023-11-19T14:31:40;4.38;;;3.80;;
84052;SDS011;74140;44.988;4.976;2023-11-19T14:34:06;3.93;;;3.30;;
84052;SDS011;74140;44.988;4.976;2023-11-19T14:36:32;3.47;;;2.85;;
84052;SDS011;74140;44.988;4.976;2023-11-19T14:38:57;3.23;;;2.93;;
84052;SDS011;74140;44.988;4.976;2023-11-19T14:41:24;4.30;;;3.03;;
84052;SDS011;74140;44.988;4.976;2023-11-19T14:43:49;3.33;;;3.03;;
84052;SDS011;74140;44.988;4.976;2023-11-19T14:46:15;3.83;;;3.10;;
84052;SDS011;74140;44.988;4.976;2023-11-19T14:48:41;3.95;;;2.70;;
84052;SDS011;74140;44.988;4.976;2023-11-19T14:51:07;4.87;;;3.40;;
84052;SDS011;74140;44.988;4.976;2023-11-19T14:53:33;5.72;;;3.35;;
84052;SDS011;74140;44.988;4.976;2023-11-19T14:55:59;4.07;;;3.00;;
84052;SDS011;74140;44.988;4.976;2023-11-19T14:58:25;3.53;;;3.22;;
84052;SDS011;74140;44.988;4.976;2023-11-19T15:00:51;5.80;;;3.27;;
84052;SDS011;74140;44.988;4.976;2023-11-19T15:03:17;4.03;;;3.08;;
84052;SDS011;74140;44.988;4.976;2023-11-19T15:05:47;3.20;;;2.90;;
84052;SDS011;74140;44.988;4.976;2023-11-19T15:08:13;6.30;;;3.42;;
84052;SDS011;74140;44.988;4.976;2023-11-19T15:10:44;3.60;;;3.30;;